• Join FlightAware (Why Join?)
  • Login
  • US Flag 
01:21AM EDT


 

Airport Tracker/Info


-or-


 

Live Flight TrackerFlight Track Log ✈ N470MD ✈ 20-Jun-2014 ✈ KBLM - KPIE

Flight Track Log - Related Links

Times and Time Zones

All times are in EDT time to prevent confusion due to time zone crossing. See the N470MD flight status page for this flight to view local times or setup timezone preferences in your user account.

Time Position Orientation Groundspeed Altitude Reporting Facility
EDT Latitude Longitude Course Direction KTS MPH feet Rate Location/Type
06:31PM 40.1167 -74.5000 252° West 264 304 6,000  Level Philadelphia TRACON
06:32PM 40.0500 -75.1278 270° West  Level FlightAware Approximate
06:32PM 40.1333 -74.5667 288° West 267 307 6,000  Level Philadelphia TRACON
06:33PM 40.0019 -75.2629 237° Southwest  Level FlightAware Approximate
06:33PM 40.1333 -74.6667 270° West 274 315 6,000  Level Philadelphia TRACON
06:34PM 39.9632 -75.4005 249° West  Level FlightAware Approximate
06:34PM 40.1333 -74.7833 270° West 270 311 6,500  Level Philadelphia TRACON
06:34PM 40.0981 -74.8222 220° Southwest 285 328 7,700 2,100 Climbing New York Center
06:35PM 39.9154 -75.5359 237° Southwest  Level FlightAware Approximate
06:35PM 40.0311 -74.8942 219° Southwest 285 328 10,000  Level New York Center
06:36PM 39.8732 -75.6740 252° West  Level FlightAware Approximate
06:36PM 40.0094 -74.9769 251° West 292 336 10,000  Level New York Center
06:37PM 39.9861 -75.1003 256° West 286 329 10,000  Level New York Center
06:38PM 39.9664 -75.1828 253° West 280 322 10,000  Level New York Center
06:39PM 39.9456 -75.2925 256° West 365 420 10,000  Level New York Center
06:40PM 39.9197 -75.4208 255° West 385 443 10,000  Level New York Center
06:41PM 39.8867 -75.5675 254° West 390 449 10,100 1,500 Climbing New York Center
06:42PM 39.8567 -75.6872 252° West 390 449 13,100 3,300 Climbing New York Center
06:43PM 39.8197 -75.8253 251° West 390 449 16,700 3,240 Climbing New York Center
06:44PM 39.7917 -75.9392 252° West 373 429 19,600 2,580 Climbing New York Center
06:47PM 39.7056 -76.2361 249° West 383 441 25,500 2,280 Climbing Washington Center
06:48PM 39.6717 -76.3678 252° West 388 447 27,400 1,980 Climbing Washington Center
06:49PM 39.6353 -76.5022 251° West 393 452 29,600 2,100 Climbing Washington Center
06:50PM 39.5881 -76.6497 247° West 398 458 31,700 1,980 Climbing Washington Center
06:51PM 39.5472 -76.7864 249° West 403 464 33,600 1,860 Climbing Washington Center
06:52PM 39.5106 -76.9203 250° West 403 464 35,400 1,740 Climbing Washington Center
06:53PM 39.4425 -77.0428 234° Southwest 409 471 37,200 1,680 Climbing Washington Center
06:54PM 39.3433 -77.1400 217° Southwest 420 483 38,900 1,380 Climbing Washington Center
06:55PM 39.2481 -77.2372 218° Southwest 432 497 40,000 540 Climbing Washington Center
06:56PM 39.1531 -77.3367 219° Southwest 437 503 40,000  Level Washington Center
06:57PM 39.0597 -77.4333 219° Southwest 437 503 40,000  Level Washington Center
06:58PM 38.9708 -77.5247 219° Southwest 429 494 40,000  Level Washington Center
06:59PM 38.8839 -77.6158 219° Southwest 434 499 40,000  Level Washington Center
07:00PM 38.7947 -77.7092 219° Southwest 425 489 40,000  Level Washington Center
07:01PM 38.6950 -77.8075 218° Southwest 440 506 40,000  Level Washington Center
07:02PM 38.6117 -77.9086 223° Southwest 433 498 40,000 420 Level Washington Center
07:03PM 38.5447 -78.0258 234° Southwest 418 481 40,900 1,260 Climbing Washington Center
07:04PM 38.4819 -78.1353 234° Southwest 407 468 42,600 1,020 Climbing Washington Center
07:05PM 38.4150 -78.2494 233° Southwest 401 461 43,000 180 Climbing Washington Center
07:06PM 38.3456 -78.3636 232° Southwest 406 467 43,000  Level Washington Center
07:07PM 38.2783 -78.4800 234° Southwest 406 467 43,000  Level Washington Center
07:08PM 38.2253 -78.5944 239° Southwest 393 452 43,000  Level Washington Center
07:09PM 38.1867 -78.7194 249° West 382 440 43,000  Level Washington Center
07:10PM 38.1500 -78.8475 250° West 382 440 43,000  Level Washington Center
07:11PM 38.1092 -78.9697 247° West 382 440 43,000  Level Washington Center
07:12PM 38.0639 -79.0917 245° Southwest 387 445 43,000  Level Washington Center
07:13PM 38.0183 -79.2214 246° West 395 455 43,000  Level Washington Center
07:14PM 37.9786 -79.3536 249° West 400 460 43,000  Level Washington Center
07:15PM 37.9308 -79.4803 244° Southwest 405 466 43,000  Level Washington Center
07:16PM 37.8722 -79.6142 241° Southwest 399 459 43,000  Level Washington Center
07:17PM 37.8264 -79.7381 245° Southwest 399 459 43,000  Level Washington Center
07:18PM 37.7539 -79.8417 229° Southwest 399 459 43,000  Level Washington Center
07:19PM 37.6511 -79.9172 210° Southwest 405 466 43,000  Level Washington Center
07:20PM 37.5458 -79.9975 211° Southwest 429 494 43,000  Level Washington Center
07:21PM 37.4428 -80.0781 212° Southwest 443 510 43,000  Level Washington Center
07:22PM 37.3622 -80.1406 212° Southwest 444 511 43,000  Level Atlanta Center
07:23PM 37.2583 -80.2214 212° Southwest 437 503 43,000  Level Atlanta Center
07:24PM 37.1586 -80.2992 212° Southwest 437 503 43,000  Level Atlanta Center
07:25PM 37.0567 -80.3794 212° Southwest 437 503 43,000  Level Atlanta Center
07:26PM 36.9547 -80.4569 211° Southwest 437 503 43,000  Level Atlanta Center
07:27PM 36.8461 -80.5136 203° Southwest 437 503 43,000  Level Atlanta Center
07:28PM 36.7325 -80.5550 196° South 431 496 43,000  Level Atlanta Center
07:29PM 36.6128 -80.5939 195° South 421 484 43,000  Level Atlanta Center
07:30PM 36.4969 -80.6325 195° South 416 479 43,000  Level Atlanta Center
07:31PM 36.3833 -80.6708 195° South 416 479 43,000  Level Atlanta Center
07:32PM 36.2675 -80.7117 196° South 426 490 43,000  Level Atlanta Center
07:33PM 36.1497 -80.7525 196° South 432 497 43,000  Level Atlanta Center
07:34PM 36.0342 -80.7906 195° South 432 497 43,000  Level Atlanta Center
07:35PM 35.9183 -80.8286 195° South 432 497 43,000  Level Atlanta Center
07:36PM 35.8025 -80.8664 195° South 432 497 43,000  Level Atlanta Center
07:37PM 35.6844 -80.9042 195° South 432 497 43,000  Level Atlanta Center
07:38PM 35.5667 -80.9444 196° South 432 497 43,000  Level Atlanta Center
07:39PM 35.4611 -80.9817 196° South 438 504 43,000  Level Atlanta Center
07:40PM 35.3433 -81.0242 196° South 438 504 43,000  Level Atlanta Center
07:41PM 35.2275 -81.0639 196° South 433 498 43,000  Level Atlanta Center
07:44PM 34.8617 -81.1872 195° South 427 491 43,000  Level Jacksonville Center
07:45PM 34.7497 -81.2250 195° South 421 484 43,000  Level Jacksonville Center
07:46PM 34.6394 -81.2597 195° South 421 484 43,000  Level Jacksonville Center
07:47PM 34.5275 -81.2997 196° South 426 490 43,000  Level Jacksonville Center
07:48PM 34.4131 -81.3347 194° South 426 490 43,000  Level Jacksonville Center
07:49PM 34.3153 -81.3664 195° South 417 480 43,000  Level Jacksonville Center
07:50PM 34.2011 -81.4036 195° South 417 480 43,000  Level Jacksonville Center
07:51PM 34.0867 -81.4383 194° South 417 480 43,000  Level Jacksonville Center
07:52PM 33.9744 -81.4753 195° South 417 480 43,000  Level Jacksonville Center
07:53PM 33.8436 -81.5172 195° South 428 493 43,000  Level Jacksonville Center
07:54PM 33.7436 -81.5489 195° South 428 493 43,000  Level Jacksonville Center
07:55PM 33.6272 -81.5856 195° South 434 499 43,000  Level Jacksonville Center
07:56PM 33.5108 -81.6222 195° South 434 499 43,000  Level Jacksonville Center
07:57PM 33.3942 -81.6586 195° South 434 499 43,000  Level Jacksonville Center
07:58PM 33.2881 -81.6925 195° South 434 499 43,000  Level Jacksonville Center
07:59PM 33.1486 -81.7364 195° South 434 499 43,000  Level Jacksonville Center
08:00PM 33.0322 -81.7750 196° South 429 494 43,000  Level Jacksonville Center
08:01PM 32.9197 -81.8111 195° South 429 494 43,000  Level Jacksonville Center
08:02PM 32.8053 -81.8472 195° South 429 494 43,000  Level Jacksonville Center
08:03PM 32.7136 -81.8753 194° South 429 494 43,000  Level Jacksonville Center
08:04PM 32.5825 -81.9236 197° South 414 476 43,000  Level Jacksonville Center
08:05PM 32.4783 -81.9542 194° South 414 476 43,000  Level Jacksonville Center
08:06PM 32.3533 -81.9950 195° South 415 478 43,000  Level Jacksonville Center
08:07PM 32.2386 -82.0281 194° South 420 483 43,000  Level Jacksonville Center
08:08PM 32.1367 -82.0583 194° South 420 483 43,000  Level Jacksonville Center
08:09PM 32.0094 -82.0989 195° South 431 496 43,000  Level Jacksonville Center
08:10PM 31.9053 -82.1314 195° South 431 496 43,000  Level Jacksonville Center
08:11PM 31.7803 -82.1692 194° South 431 496 43,000  Level Jacksonville Center
08:12PM 31.6656 -82.2042 195° South 426 490 43,000  Level Jacksonville Center
08:13PM 31.5636 -82.2342 194° South 431 496 43,000 -60 Level Jacksonville Center
08:14PM 31.4508 -82.2717 196° South 431 496 42,900 -600 Descending Jacksonville Center
08:15PM 31.3406 -82.3064 195° South 421 484 41,800 -1,020 Descending Jacksonville Center
08:16PM 31.2278 -82.3386 194° South 416 479 40,900 -900 Descending Jacksonville Center
08:17PM 31.1172 -82.3756 196° South 411 473 40,000 -480 Descending Jacksonville Center
08:18PM 31.0069 -82.4053 193° South 411 473 40,000 -60 Level Jacksonville Center
08:19PM 30.8858 -82.4400 194° South 424 488 39,900  Descending Jacksonville Center
08:20PM 30.7711 -82.4744 194° South 429 494 40,000  Climbing Jacksonville Center
08:21PM 30.6583 -82.5086 195° South 429 494 40,000 -120 Level Jacksonville Center
08:22PM 30.5394 -82.5453 195° South 435 501 39,800 -420 Descending Jacksonville Center
08:23PM 30.4225 -82.5408 178° South 422 486 39,200 -900 Descending Jacksonville Center
08:24PM 30.3056 -82.5147 169° South 422 486 38,000 -1,500 Descending Jacksonville Center
08:25PM 30.1844 -82.4864 169° South 428 493 36,300 -1,800 Descending Jacksonville Center
08:26PM 30.0694 -82.4631 170° South 428 493 34,500 -1,800 Descending Jacksonville Center
08:27PM 29.9547 -82.4322 167° South 428 493 32,800 -2,100 Descending Jacksonville Center
08:28PM 29.8356 -82.4089 170° South 433 498 30,300 -2,700 Descending Jacksonville Center
08:29PM 29.7164 -82.3856 170° South 433 498 27,500 -2,400 Descending Jacksonville Center
08:30PM 29.5931 -82.3600 170° South 423 487 25,500 -1,620 Descending Jacksonville Center
08:31PM 29.4803 -82.3439 173° South 417 480 24,300 -1,200 Descending Jacksonville Center
08:32PM 29.3675 -82.3325 175° South 412 474 23,100 -1,320 Descending Jacksonville Center
08:33PM 29.2528 -82.3167 173° South 412 474 21,700 -1,740 Descending Jacksonville Center
08:34PM 29.1358 -82.3053 175° South 412 474 19,700 -2,040 Descending Jacksonville Center
08:35PM 29.0125 -82.2894 174° South 429 494 17,700 -2,220 Descending Jacksonville Center
08:36PM 28.9081 -82.2758 173° South 429 494 15,300 -1,440 Descending Jacksonville Center
08:38PM 28.6622 -82.2564 176° South 400 460 13,000 -1,080 Descending Miami Center
08:39PM 28.5333 -82.2500 178° South 405 466 11,900 -1,260 Descending Tampa TRACON
08:40PM 28.4333 -82.3000 204° Southwest 404 465 10,500 -960 Descending Tampa TRACON
08:41PM 28.3833 -82.4167 244° Southwest 391 450 10,000 -300 Descending Tampa TRACON
08:42PM 28.3500 -82.5333 252° West 394 453 10,000  Level Tampa TRACON
08:43PM 28.2667 -82.6167 221° Southwest 391 450 10,000 -540 Level Tampa TRACON
08:44PM 28.2000 -82.6833 221° Southwest 295 339 9,000 -1,680 Descending Tampa TRACON
08:45PM 28.1333 -82.7333 213° Southwest 276 318 6,700 -2,580 Descending Tampa TRACON
08:46PM 28.0667 -82.7500 192° South 285 328 4,200 -2,160 Descending Tampa TRACON
08:47PM 27.9833 -82.7333 170° South 262 302 2,600 -1,200 Descending Tampa TRACON
08:48PM 27.9333 -82.7333 180° South 186 214 1,900 -600 Descending Tampa TRACON
08:49PM 27.8833 -82.7333 180° South 148 170 1,400 -720 Descending Tampa TRACON
08:50PM 27.8833 -82.6833 90° East 141 162 500 -900 Descending Tampa TRACON